createdAt,value
2019-05-11T00:00:17.851Z,9.58
2019-05-11T00:05:21.964Z,9.73
2019-05-11T00:15:31.066Z,9.10
2019-05-11T00:25:59.282Z,8.93
2019-05-11T00:31:02.835Z,8.57
2019-05-11T00:36:07.531Z,8.67
2019-05-11T00:41:11.348Z,8.53
2019-05-11T00:51:18.759Z,7.53
2019-05-11T00:56:22.404Z,8.07
2019-05-11T01:06:29.650Z,9.30
2019-05-11T01:11:33.360Z,7.50
2019-05-11T01:21:40.607Z,7.30
2019-05-11T01:26:44.300Z,7.83
2019-05-11T01:31:47.990Z,7.77
2019-05-11T01:36:51.839Z,7.87
2019-05-11T01:41:55.558Z,7.27
2019-05-11T01:46:59.379Z,7.27
2019-05-11T01:57:06.718Z,7.45
2019-05-11T02:02:10.537Z,7.47
2019-05-11T02:07:15.485Z,7.43
2019-05-11T02:12:19.269Z,7.17
2019-05-11T02:17:22.996Z,8.00
2019-05-11T02:22:26.432Z,7.22
2019-05-11T02:27:30.072Z,7.10
2019-05-11T02:32:33.669Z,7.40
2019-05-11T02:37:37.577Z,7.57
2019-05-11T02:42:41.416Z,7.63
2019-05-11T02:47:45.047Z,7.20
2019-05-11T02:52:48.735Z,7.80
2019-05-11T03:07:59.784Z,7.50
2019-05-11T03:13:03.826Z,8.03
2019-05-11T03:18:07.533Z,7.77
2019-05-11T03:23:11.275Z,7.50
2019-05-11T03:28:14.861Z,7.80
2019-05-11T03:33:18.587Z,7.70
2019-05-11T03:38:22.297Z,8.70
2019-05-11T03:43:25.990Z,8.20
2019-05-11T03:48:29.636Z,9.03
2019-05-11T03:53:33.349Z,7.13
2019-05-11T03:58:37.094Z,8.00
2019-05-11T04:03:40.683Z,8.40
2019-05-11T04:08:44.820Z,8.00
2019-05-11T04:13:48.532Z,7.53
2019-05-11T04:18:52.276Z,7.35
2019-05-11T04:23:55.830Z,7.93
2019-05-11T04:28:59.593Z,8.07
2019-05-11T04:34:03.310Z,7.85
2019-05-11T04:39:07.325Z,7.77
2019-05-11T04:44:11.015Z,8.47
2019-05-11T04:49:14.684Z,8.53
2019-05-11T04:54:18.684Z,8.03
2019-05-11T04:59:22.711Z,8.00
2019-05-11T05:04:26.530Z,7.80
2019-05-11T05:09:36.160Z,7.72
2019-05-11T05:19:41.017Z,7.80
2019-05-11T05:24:44.675Z,8.50
2019-05-11T05:29:48.405Z,8.30
2019-05-11T05:34:52.270Z,7.70
2019-05-11T05:39:55.841Z,8.67
2019-05-11T05:44:59.548Z,8.10
2019-05-11T05:50:03.267Z,7.93
2019-05-11T05:55:06.978Z,8.03
2019-05-11T06:05:15.013Z,7.90
2019-05-11T06:10:20.698Z,8.60
2019-05-11T06:20:46.688Z,8.38
2019-05-11T06:25:50.488Z,8.47
2019-05-11T06:35:57.726Z,7.77
2019-05-11T06:41:01.342Z,7.80
2019-05-11T06:46:05.098Z,8.63
2019-05-11T06:51:08.769Z,8.45
2019-05-11T06:56:13.512Z,8.27
2019-05-11T07:01:17.281Z,8.35
2019-05-11T07:06:21.025Z,8.17
2019-05-11T07:11:24.669Z,8.60
2019-05-11T07:16:28.788Z,8.73
2019-05-11T07:21:32.714Z,8.30
2019-05-11T07:26:36.640Z,7.80
2019-05-11T07:31:40.351Z,8.17
2019-05-11T07:36:44.027Z,9.00
2019-05-11T07:41:48.056Z,8.30
2019-05-11T07:46:51.816Z,9.27
2019-05-11T07:51:55.746Z,8.73
2019-05-11T07:56:59.648Z,9.60
2019-05-11T08:02:03.384Z,9.37
2019-05-11T08:07:07.746Z,8.67
2019-05-11T08:12:11.841Z,7.90
2019-05-11T08:17:15.541Z,8.17
2019-05-11T08:22:22.724Z,8.17
2019-05-11T08:27:24.840Z,8.30
2019-05-11T08:32:28.823Z,8.60
2019-05-11T08:37:33.906Z,9.10
2019-05-11T08:42:38.072Z,8.40
2019-05-11T08:52:47.868Z,8.03
2019-05-11T09:02:58.278Z,8.13
2019-05-11T09:08:02.069Z,7.37
2019-05-11T09:13:08.032Z,8.87
2019-05-11T09:18:11.747Z,8.23
2019-05-11T09:28:21.604Z,20.88
2019-05-11T09:33:28.183Z,470.42
2019-05-11T09:38:33.056Z,698.47
2019-05-11T09:48:44.863Z,556.40
2019-05-11T10:09:03.405Z,781.70
2019-05-11T10:19:12.885Z,749.48
2019-05-11T10:24:17.767Z,591.83
2019-05-11T10:29:22.130Z,579.47
2019-05-11T10:34:28.310Z,338.70
2019-05-11T10:39:31.860Z,166.15
2019-05-11T10:49:39.887Z,468.23
2019-05-11T10:54:44.065Z,643.73
2019-05-11T10:59:50.059Z,357.43
2019-05-11T11:04:54.324Z,168.65
2019-05-11T11:15:02.493Z,31.75
2019-05-11T11:25:14.624Z,286.57
2019-05-11T11:30:18.976Z,112.83
2019-05-11T11:40:28.638Z,162.07
2019-05-11T11:45:32.742Z,183.32
2019-05-11T11:55:42.961Z,312.30
2019-05-11T12:05:52.877Z,402.88
2019-05-11T12:16:02.931Z,394.82
2019-05-11T12:21:27.710Z,456.87
2019-05-11T12:26:32.024Z,217.13
2019-05-11T12:31:37.918Z,419.33
2019-05-11T12:36:41.848Z,625.07
2019-05-11T12:41:47.889Z,586.53
2019-05-11T12:46:51.450Z,729.87
2019-05-11T12:51:58.064Z,699.53
2019-05-11T12:57:02.400Z,700.65
2019-05-11T13:02:08.205Z,803.70
2019-05-11T13:22:28.971Z,645.10
2019-05-11T13:27:33.215Z,490.87
2019-05-11T13:32:38.504Z,323.07
2019-05-11T13:37:42.473Z,195.17
2019-05-11T13:42:48.719Z,102.15
2019-05-11T13:47:55.840Z,65.92
2019-05-11T13:58:02.662Z,658.57
2019-05-11T14:03:09.859Z,630.13
2019-05-11T14:08:18.355Z,699.53
2019-05-11T14:13:21.499Z,718.33
2019-05-11T14:18:25.432Z,424.57
2019-05-11T14:23:31.434Z,304.20
2019-05-11T14:28:37.724Z,169.80
2019-05-11T14:33:41.786Z,557.73
2019-05-11T14:38:48.639Z,516.67
2019-05-11T14:43:51.879Z,508.37
2019-05-11T14:54:02.445Z,660.00
2019-05-11T15:09:18.281Z,533.48
2019-05-11T15:14:22.946Z,486.47
2019-05-11T15:19:28.190Z,637.17
2019-05-11T16:00:08.844Z,709.30
2019-05-11T16:10:18.741Z,553.80
2019-05-11T16:20:28.536Z,512.02
2019-05-11T16:25:32.749Z,715.13
2019-05-11T16:35:43.050Z,661.30
2019-05-11T16:45:52.239Z,423.60
2019-05-11T16:50:58.098Z,339.63
2019-05-11T17:01:08.410Z,562.98
2019-05-11T17:11:18.458Z,291.45
2019-05-11T17:26:35.123Z,339.93
2019-05-11T17:41:50.323Z,652.92
2019-05-11T17:51:59.823Z,659.08
2019-05-11T17:57:04.152Z,888.33
2019-05-11T18:02:09.496Z,758.63
2019-05-11T18:07:25.205Z,869.35
2019-05-11T18:12:19.960Z,720.02
2019-05-11T18:23:19.361Z,1119.03
2019-05-11T18:28:23.074Z,1135.93
2019-05-11T18:33:27.718Z,1011.17
2019-05-11T18:38:31.653Z,984.47
2019-05-11T18:43:37.603Z,1049.07
2019-05-11T18:48:41.453Z,1008.43
2019-05-11T18:53:48.141Z,1143.20
2019-05-11T18:58:51.768Z,1048.33
2019-05-11T19:03:56.078Z,1028.47
2019-05-11T19:09:05.390Z,1203.03
2019-05-11T19:19:12.856Z,1494.57
2019-05-11T19:24:18.809Z,1505.03
2019-05-11T19:33:20.372Z,1596.03
2019-05-11T19:38:24.147Z,1642.90
2019-05-11T19:43:27.879Z,1494.63
2019-05-11T19:48:35.064Z,1273.30
2019-05-11T19:53:38.841Z,1449.30
2019-05-11T19:58:43.103Z,1306.83
2019-05-11T20:03:46.865Z,1156.37
2019-05-11T20:08:50.667Z,971.20
2019-05-11T20:13:54.595Z,817.60
2019-05-11T20:18:58.510Z,656.07
2019-05-11T20:24:02.436Z,1028.73
2019-05-11T20:34:20.890Z,1471.60
2019-05-11T20:39:28.512Z,1322.50
2019-05-11T20:44:32.215Z,1186.90
2019-05-11T20:49:36.078Z,1194.50
2019-05-11T20:54:39.907Z,1353.23
2019-05-11T20:59:43.868Z,1328.30
2019-05-11T21:04:49.122Z,1357.40
2019-05-11T21:09:57.792Z,1563.20
2019-05-11T21:15:01.836Z,1797.63
2019-05-11T21:20:05.860Z,1798.63
2019-05-11T21:25:09.878Z,1845.40
2019-05-11T21:30:13.710Z,1641.90
2019-05-11T21:35:19.177Z,1540.13
2019-05-11T21:40:23.897Z,1649.40
2019-05-11T21:45:28.343Z,1821.50
2019-05-11T21:55:37.762Z,1649.63
2019-05-11T22:00:41.900Z,1603.97
2019-05-11T22:05:45.662Z,1432.57
2019-05-11T22:10:49.607Z,1298.47
2019-05-11T22:15:53.408Z,1199.07
2019-05-11T22:20:58.014Z,1011.83
2019-05-11T22:26:01.767Z,862.23
2019-05-11T22:36:10.749Z,655.40
2019-05-11T22:41:14.771Z,551.03
2019-05-11T22:46:19.467Z,439.07
2019-05-11T22:56:30.931Z,222.77
2019-05-11T23:01:34.649Z,171.43
2019-05-11T23:06:40.489Z,537.73
2019-05-11T23:11:43.825Z,656.67
2019-05-11T23:16:49.782Z,646.40
2019-05-11T23:21:53.091Z,903.37
2019-05-11T23:26:56.821Z,935.88
2019-05-11T23:32:00.642Z,915.70
2019-05-11T23:37:07.989Z,988.03
2019-05-11T23:42:11.762Z,972.10
2019-05-11T23:47:20.052Z,1120.07
2019-05-11T23:57:24.874Z,1376.63
